sensor_id;sensor_type;location;lat;lon;timestamp;temperature;humidity
16347;DHT22;8283;48.504;13.734;2024-01-06T00:00:05;8.50;90.00
16347;DHT22;8283;48.504;13.734;2024-01-06T00:02:30;8.50;90.00
16347;DHT22;8283;48.504;13.734;2024-01-06T00:04:50;8.50;90.00
16347;DHT22;8283;48.504;13.734;2024-01-06T00:07:09;8.50;89.80
16347;DHT22;8283;48.504;13.734;2024-01-06T00:09:28;8.50;89.70
16347;DHT22;8283;48.504;13.734;2024-01-06T00:11:48;8.50;89.70
16347;DHT22;8283;48.504;13.734;2024-01-06T00:14:07;8.40;89.70
16347;DHT22;8283;48.504;13.734;2024-01-06T00:16:26;8.40;89.80
16347;DHT22;8283;48.504;13.734;2024-01-06T00:18:46;8.40;90.00
16347;DHT22;8283;48.504;13.734;2024-01-06T00:21:05;8.40;90.00
16347;DHT22;8283;48.504;13.734;2024-01-06T00:23:25;8.40;90.00
16347;DHT22;8283;48.504;13.734;2024-01-06T00:25:44;8.40;90.00
16347;DHT22;8283;48.504;13.734;2024-01-06T00:28:04;8.40;89.80
16347;DHT22;8283;48.504;13.734;2024-01-06T00:30:23;8.40;90.00
16347;DHT22;8283;48.504;13.734;2024-01-06T00:32:42;8.40;90.00
16347;DHT22;8283;48.504;13.734;2024-01-06T00:35:02;8.40;90.00
16347;DHT22;8283;48.504;13.734;2024-01-06T00:37:21;8.40;90.00
16347;DHT22;8283;48.504;13.734;2024-01-06T00:39:41;8.40;90.00
16347;DHT22;8283;48.504;13.734;2024-01-06T00:42:00;8.40;89.90
16347;DHT22;8283;48.504;13.734;2024-01-06T00:44:20;8.40;89.90
16347;DHT22;8283;48.504;13.734;2024-01-06T00:46:39;8.40;90.00
16347;DHT22;8283;48.504;13.734;2024-01-06T00:48:59;8.40;90.10
16347;DHT22;8283;48.504;13.734;2024-01-06T00:51:19;8.40;90.10
16347;DHT22;8283;48.504;13.734;2024-01-06T00:53:38;8.40;90.10
16347;DHT22;8283;48.504;13.734;2024-01-06T00:55:57;8.40;90.10
16347;DHT22;8283;48.504;13.734;2024-01-06T00:58:17;8.40;90.10
16347;DHT22;8283;48.504;13.734;2024-01-06T01:00:36;8.40;90.20
16347;DHT22;8283;48.504;13.734;2024-01-06T01:02:56;8.40;90.20
16347;DHT22;8283;48.504;13.734;2024-01-06T01:05:16;8.50;90.30
16347;DHT22;8283;48.504;13.734;2024-01-06T01:07:35;8.50;90.20
16347;DHT22;8283;48.504;13.734;2024-01-06T01:09:55;8.50;90.20
16347;DHT22;8283;48.504;13.734;2024-01-06T01:12:15;8.50;90.20
16347;DHT22;8283;48.504;13.734;2024-01-06T01:14:34;8.50;90.20
16347;DHT22;8283;48.504;13.734;2024-01-06T01:16:53;8.50;90.20
16347;DHT22;8283;48.504;13.734;2024-01-06T01:19:13;8.50;90.20
16347;DHT22;8283;48.504;13.734;2024-01-06T01:21:33;8.50;90.10
16347;DHT22;8283;48.504;13.734;2024-01-06T01:23:52;8.50;90.20
16347;DHT22;8283;48.504;13.734;2024-01-06T01:26:12;8.50;90.20
16347;DHT22;8283;48.504;13.734;2024-01-06T01:28:31;8.50;90.20
16347;DHT22;8283;48.504;13.734;2024-01-06T01:30:50;8.50;90.20
16347;DHT22;8283;48.504;13.734;2024-01-06T01:33:09;8.50;90.30
16347;DHT22;8283;48.504;13.734;2024-01-06T01:35:29;8.50;90.30
16347;DHT22;8283;48.504;13.734;2024-01-06T01:37:48;8.50;90.30
16347;DHT22;8283;48.504;13.734;2024-01-06T01:40:08;8.50;90.40
16347;DHT22;8283;48.504;13.734;2024-01-06T01:42:27;8.50;90.40
16347;DHT22;8283;48.504;13.734;2024-01-06T01:44:47;8.60;90.40
16347;DHT22;8283;48.504;13.734;2024-01-06T01:47:07;8.60;90.40
16347;DHT22;8283;48.504;13.734;2024-01-06T01:49:27;8.60;90.40
16347;DHT22;8283;48.504;13.734;2024-01-06T01:51:46;8.60;90.40
16347;DHT22;8283;48.504;13.734;2024-01-06T01:54:07;8.60;90.30
16347;DHT22;8283;48.504;13.734;2024-01-06T01:56:26;8.60;90.30
16347;DHT22;8283;48.504;13.734;2024-01-06T01:58:47;9.10;90.40
16347;DHT22;8283;48.504;13.734;2024-01-06T02:01:07;8.60;90.30
16347;DHT22;8283;48.504;13.734;2024-01-06T02:03:32;8.50;90.30
16347;DHT22;8283;48.504;13.734;2024-01-06T02:05:51;8.50;90.40
16347;DHT22;8283;48.504;13.734;2024-01-06T02:08:12;8.50;90.30
16347;DHT22;8283;48.504;13.734;2024-01-06T02:10:31;8.50;90.40
16347;DHT22;8283;48.504;13.734;2024-01-06T02:12:51;8.40;90.40
16347;DHT22;8283;48.504;13.734;2024-01-06T02:15:10;8.50;90.50
16347;DHT22;8283;48.504;13.734;2024-01-06T02:17:30;8.50;90.50
16347;DHT22;8283;48.504;13.734;2024-01-06T02:19:49;8.50;90.50
16347;DHT22;8283;48.504;13.734;2024-01-06T02:22:08;8.50;90.50
16347;DHT22;8283;48.504;13.734;2024-01-06T02:24:27;8.50;90.50
16347;DHT22;8283;48.504;13.734;2024-01-06T02:26:46;8.50;90.50
16347;DHT22;8283;48.504;13.734;2024-01-06T02:29:06;8.50;90.50
16347;DHT22;8283;48.504;13.734;2024-01-06T02:31:25;8.60;90.60
16347;DHT22;8283;48.504;13.734;2024-01-06T02:33:44;8.60;90.50
16347;DHT22;8283;48.504;13.734;2024-01-06T02:36:04;8.60;90.60
16347;DHT22;8283;48.504;13.734;2024-01-06T02:38:24;8.60;90.50
16347;DHT22;8283;48.504;13.734;2024-01-06T02:40:44;8.60;90.50
16347;DHT22;8283;48.504;13.734;2024-01-06T02:43:04;8.50;90.50
16347;DHT22;8283;48.504;13.734;2024-01-06T02:45:23;8.50;90.50
16347;DHT22;8283;48.504;13.734;2024-01-06T02:47:42;8.50;90.80
16347;DHT22;8283;48.504;13.734;2024-01-06T02:50:01;8.50;90.50
16347;DHT22;8283;48.504;13.734;2024-01-06T02:52:21;8.50;90.50
16347;DHT22;8283;48.504;13.734;2024-01-06T02:54:41;8.50;90.60
16347;DHT22;8283;48.504;13.734;2024-01-06T02:57:01;8.50;90.60
16347;DHT22;8283;48.504;13.734;2024-01-06T02:59:20;8.50;90.60
16347;DHT22;8283;48.504;13.734;2024-01-06T03:01:39;8.60;90.60
16347;DHT22;8283;48.504;13.734;2024-01-06T03:03:59;8.60;90.60
16347;DHT22;8283;48.504;13.734;2024-01-06T03:06:18;8.50;90.60
16347;DHT22;8283;48.504;13.734;2024-01-06T03:08:37;8.60;90.60
16347;DHT22;8283;48.504;13.734;2024-01-06T03:10:57;8.50;90.70
16347;DHT22;8283;48.504;13.734;2024-01-06T03:13:17;8.50;90.70
16347;DHT22;8283;48.504;13.734;2024-01-06T03:15:36;8.60;90.70
16347;DHT22;8283;48.504;13.734;2024-01-06T03:17:56;8.60;90.70
16347;DHT22;8283;48.504;13.734;2024-01-06T03:20:15;8.50;90.70
16347;DHT22;8283;48.504;13.734;2024-01-06T03:22:35;8.60;90.70
16347;DHT22;8283;48.504;13.734;2024-01-06T03:24:55;8.60;90.80
16347;DHT22;8283;48.504;13.734;2024-01-06T03:27:14;8.60;90.70
16347;DHT22;8283;48.504;13.734;2024-01-06T03:29:33;8.60;90.70
16347;DHT22;8283;48.504;13.734;2024-01-06T03:31:53;8.60;90.70
16347;DHT22;8283;48.504;13.734;2024-01-06T03:34:12;8.60;90.70
16347;DHT22;8283;48.504;13.734;2024-01-06T03:36:32;8.60;90.60
16347;DHT22;8283;48.504;13.734;2024-01-06T03:38:51;8.60;90.60
16347;DHT22;8283;48.504;13.734;2024-01-06T03:41:11;8.60;90.70
16347;DHT22;8283;48.504;13.734;2024-01-06T03:43:30;8.60;90.70
16347;DHT22;8283;48.504;13.734;2024-01-06T03:45:49;8.60;90.70
16347;DHT22;8283;48.504;13.734;2024-01-06T03:48:09;8.00;90.50
16347;DHT22;8283;48.504;13.734;2024-01-06T03:50:28;8.60;90.60
16347;DHT22;8283;48.504;13.734;2024-01-06T03:52:48;8.50;90.60
16347;DHT22;8283;48.504;13.734;2024-01-06T03:55:08;8.50;90.60
16347;DHT22;8283;48.504;13.734;2024-01-06T03:57:27;8.50;90.60
16347;DHT22;8283;48.504;13.734;2024-01-06T03:59:46;8.50;90.60
16347;DHT22;8283;48.504;13.734;2024-01-06T04:02:06;8.50;90.70
16347;DHT22;8283;48.504;13.734;2024-01-06T04:04:25;8.40;90.70
16347;DHT22;8283;48.504;13.734;2024-01-06T04:06:44;8.40;90.70
16347;DHT22;8283;48.504;13.734;2024-01-06T04:09:04;8.40;90.60
16347;DHT22;8283;48.504;13.734;2024-01-06T04:11:24;8.40;90.60
16347;DHT22;8283;48.504;13.734;2024-01-06T04:13:44;8.40;90.60
16347;DHT22;8283;48.504;13.734;2024-01-06T04:16:03;8.40;90.60
16347;DHT22;8283;48.504;13.734;2024-01-06T04:18:23;8.40;90.70
16347;DHT22;8283;48.504;13.734;2024-01-06T04:20:42;8.30;90.60
16347;DHT22;8283;48.504;13.734;2024-01-06T04:23:02;8.30;90.70
16347;DHT22;8283;48.504;13.734;2024-01-06T04:25:21;8.30;90.70
16347;DHT22;8283;48.504;13.734;2024-01-06T04:27:40;8.30;90.70
16347;DHT22;8283;48.504;13.734;2024-01-06T04:29:59;8.30;90.80
16347;DHT22;8283;48.504;13.734;2024-01-06T04:32:19;8.30;90.80
16347;DHT22;8283;48.504;13.734;2024-01-06T04:34:38;8.30;90.90
16347;DHT22;8283;48.504;13.734;2024-01-06T04:36:57;8.30;90.90
16347;DHT22;8283;48.504;13.734;2024-01-06T04:39:17;8.30;90.90
16347;DHT22;8283;48.504;13.734;2024-01-06T04:41:36;9.40;91.30
16347;DHT22;8283;48.504;13.734;2024-01-06T04:43:55;8.30;91.00
16347;DHT22;8283;48.504;13.734;2024-01-06T04:46:15;8.30;91.00
16347;DHT22;8283;48.504;13.734;2024-01-06T04:48:34;8.30;91.00
16347;DHT22;8283;48.504;13.734;2024-01-06T04:50:54;8.30;91.00
16347;DHT22;8283;48.504;13.734;2024-01-06T04:53:13;8.40;91.00
16347;DHT22;8283;48.504;13.734;2024-01-06T04:55:33;8.30;91.00
16347;DHT22;8283;48.504;13.734;2024-01-06T04:57:52;8.40;91.30
16347;DHT22;8283;48.504;13.734;2024-01-06T05:00:12;8.40;91.00
16347;DHT22;8283;48.504;13.734;2024-01-06T05:02:31;8.30;90.90
16347;DHT22;8283;48.504;13.734;2024-01-06T05:04:51;8.40;90.90
16347;DHT22;8283;48.504;13.734;2024-01-06T05:07:10;8.30;90.90
16347;DHT22;8283;48.504;13.734;2024-01-06T05:09:29;8.30;90.90
16347;DHT22;8283;48.504;13.734;2024-01-06T05:11:49;8.30;91.30
16347;DHT22;8283;48.504;13.734;2024-01-06T05:14:08;8.30;90.90
16347;DHT22;8283;48.504;13.734;2024-01-06T05:16:28;8.30;90.90
16347;DHT22;8283;48.504;13.734;2024-01-06T05:18:47;8.30;90.90
16347;DHT22;8283;48.504;13.734;2024-01-06T05:21:06;8.30;91.00
16347;DHT22;8283;48.504;13.734;2024-01-06T05:23:26;8.30;91.00
16347;DHT22;8283;48.504;13.734;2024-01-06T05:25:45;8.30;91.10
16347;DHT22;8283;48.504;13.734;2024-01-06T05:28:05;8.30;91.10
16347;DHT22;8283;48.504;13.734;2024-01-06T05:30:24;8.30;91.10
16347;DHT22;8283;48.504;13.734;2024-01-06T05:32:44;8.30;91.10
16347;DHT22;8283;48.504;13.734;2024-01-06T05:35:03;8.30;91.10
16347;DHT22;8283;48.504;13.734;2024-01-06T05:37:23;8.30;91.10
16347;DHT22;8283;48.504;13.734;2024-01-06T05:39:42;8.30;91.10
16347;DHT22;8283;48.504;13.734;2024-01-06T05:42:02;8.30;91.20
16347;DHT22;8283;48.504;13.734;2024-01-06T05:44:22;8.40;91.20
16347;DHT22;8283;48.504;13.734;2024-01-06T05:46:41;8.40;91.20
16347;DHT22;8283;48.504;13.734;2024-01-06T05:49:01;8.30;91.10
16347;DHT22;8283;48.504;13.734;2024-01-06T05:51:20;8.40;91.20
16347;DHT22;8283;48.504;13.734;2024-01-06T05:53:40;8.40;91.20
16347;DHT22;8283;48.504;13.734;2024-01-06T05:56:01;8.40;91.20
16347;DHT22;8283;48.504;13.734;2024-01-06T05:58:20;8.40;91.30
16347;DHT22;8283;48.504;13.734;2024-01-06T06:00:41;8.40;91.20
16347;DHT22;8283;48.504;13.734;2024-01-06T06:03:00;8.40;91.30
16347;DHT22;8283;48.504;13.734;2024-01-06T06:05:20;8.40;91.30
16347;DHT22;8283;48.504;13.734;2024-01-06T06:07:39;8.40;91.30
16347;DHT22;8283;48.504;13.734;2024-01-06T06:09:59;8.40;91.40
16347;DHT22;8283;48.504;13.734;2024-01-06T06:12:22;8.40;91.40
16347;DHT22;8283;48.504;13.734;2024-01-06T06:14:41;8.50;91.40
16347;DHT22;8283;48.504;13.734;2024-01-06T06:17:00;8.50;91.40
16347;DHT22;8283;48.504;13.734;2024-01-06T06:19:20;8.50;91.40
16347;DHT22;8283;48.504;13.734;2024-01-06T06:21:39;8.50;91.40
16347;DHT22;8283;48.504;13.734;2024-01-06T06:23:58;8.50;91.50
16347;DHT22;8283;48.504;13.734;2024-01-06T06:26:18;8.50;91.50
16347;DHT22;8283;48.504;13.734;2024-01-06T06:28:37;8.50;91.50
16347;DHT22;8283;48.504;13.734;2024-01-06T06:30:56;8.60;91.50
16347;DHT22;8283;48.504;13.734;2024-01-06T06:33:16;8.60;91.50
16347;DHT22;8283;48.504;13.734;2024-01-06T06:35:37;8.60;91.50
16347;DHT22;8283;48.504;13.734;2024-01-06T06:37:56;8.60;91.50
16347;DHT22;8283;48.504;13.734;2024-01-06T06:40:16;8.60;91.50
16347;DHT22;8283;48.504;13.734;2024-01-06T06:42:35;8.60;91.50
16347;DHT22;8283;48.504;13.734;2024-01-06T06:44:54;8.70;91.50
16347;DHT22;8283;48.504;13.734;2024-01-06T06:47:14;8.60;91.50
16347;DHT22;8283;48.504;13.734;2024-01-06T06:49:33;8.70;91.50
16347;DHT22;8283;48.504;13.734;2024-01-06T06:51:53;8.70;91.50
16347;DHT22;8283;48.504;13.734;2024-01-06T06:54:13;8.70;91.50
16347;DHT22;8283;48.504;13.734;2024-01-06T06:56:33;8.70;91.50
16347;DHT22;8283;48.504;13.734;2024-01-06T06:58:53;8.70;91.50
16347;DHT22;8283;48.504;13.734;2024-01-06T07:01:16;8.70;91.50
16347;DHT22;8283;48.504;13.734;2024-01-06T07:03:36;8.70;91.60
16347;DHT22;8283;48.504;13.734;2024-01-06T07:05:55;8.70;91.50
16347;DHT22;8283;48.504;13.734;2024-01-06T07:08:14;8.70;91.50
16347;DHT22;8283;48.504;13.734;2024-01-06T07:10:34;8.60;91.50
16347;DHT22;8283;48.504;13.734;2024-01-06T07:12:53;8.70;91.50
16347;DHT22;8283;48.504;13.734;2024-01-06T07:15:13;8.70;91.90
16347;DHT22;8283;48.504;13.734;2024-01-06T07:17:32;8.70;91.60
16347;DHT22;8283;48.504;13.734;2024-01-06T07:19:52;8.70;91.60
16347;DHT22;8283;48.504;13.734;2024-01-06T07:22:13;8.70;91.60
16347;DHT22;8283;48.504;13.734;2024-01-06T07:24:32;8.80;91.70
16347;DHT22;8283;48.504;13.734;2024-01-06T07:26:51;8.80;91.70
16347;DHT22;8283;48.504;13.734;2024-01-06T07:29:10;8.80;91.70
16347;DHT22;8283;48.504;13.734;2024-01-06T07:31:30;8.80;91.70
16347;DHT22;8283;48.504;13.734;2024-01-06T07:33:49;8.80;91.70
16347;DHT22;8283;48.504;13.734;2024-01-06T07:36:08;8.90;91.70
16347;DHT22;8283;48.504;13.734;2024-01-06T07:38:27;8.90;91.70
16347;DHT22;8283;48.504;13.734;2024-01-06T07:40:47;8.50;91.60
16347;DHT22;8283;48.504;13.734;2024-01-06T07:43:07;8.90;91.70
16347;DHT22;8283;48.504;13.734;2024-01-06T07:45:28;9.00;91.80
16347;DHT22;8283;48.504;13.734;2024-01-06T07:47:47;9.00;91.80
16347;DHT22;8283;48.504;13.734;2024-01-06T07:50:07;9.00;91.80
16347;DHT22;8283;48.504;13.734;2024-01-06T07:52:27;9.10;91.80
16347;DHT22;8283;48.504;13.734;2024-01-06T07:54:46;9.10;91.80
16347;DHT22;8283;48.504;13.734;2024-01-06T07:57:07;9.10;91.80
16347;DHT22;8283;48.504;13.734;2024-01-06T07:59:27;9.50;91.90
16347;DHT22;8283;48.504;13.734;2024-01-06T08:01:46;9.20;91.80
16347;DHT22;8283;48.504;13.734;2024-01-06T08:04:06;9.20;91.80
16347;DHT22;8283;48.504;13.734;2024-01-06T08:06:25;9.20;91.80
16347;DHT22;8283;48.504;13.734;2024-01-06T08:08:45;9.30;91.80
16347;DHT22;8283;48.504;13.734;2024-01-06T08:11:05;9.30;91.80
16347;DHT22;8283;48.504;13.734;2024-01-06T08:13:24;9.30;91.80
16347;DHT22;8283;48.504;13.734;2024-01-06T08:15:44;9.30;91.80
16347;DHT22;8283;48.504;13.734;2024-01-06T08:18:03;9.40;91.90
16347;DHT22;8283;48.504;13.734;2024-01-06T08:20:23;9.40;91.80
16347;DHT22;8283;48.504;13.734;2024-01-06T08:22:42;9.40;91.70
16347;DHT22;8283;48.504;13.734;2024-01-06T08:25:03;9.40;91.80
16347;DHT22;8283;48.504;13.734;2024-01-06T08:27:25;9.40;91.80
16347;DHT22;8283;48.504;13.734;2024-01-06T08:29:44;9.50;91.80
16347;DHT22;8283;48.504;13.734;2024-01-06T08:32:04;9.50;91.80
16347;DHT22;8283;48.504;13.734;2024-01-06T08:34:24;9.50;91.80
16347;DHT22;8283;48.504;13.734;2024-01-06T08:36:43;9.50;91.80
16347;DHT22;8283;48.504;13.734;2024-01-06T08:39:03;9.50;91.80
16347;DHT22;8283;48.504;13.734;2024-01-06T08:41:22;9.60;91.80
16347;DHT22;8283;48.504;13.734;2024-01-06T08:43:41;9.60;91.80
16347;DHT22;8283;48.504;13.734;2024-01-06T08:46:00;9.60;91.80
16347;DHT22;8283;48.504;13.734;2024-01-06T08:48:21;9.70;91.80
16347;DHT22;8283;48.504;13.734;2024-01-06T08:50:42;9.70;91.80
16347;DHT22;8283;48.504;13.734;2024-01-06T08:53:01;9.70;91.80
16347;DHT22;8283;48.504;13.734;2024-01-06T08:55:21;9.70;91.80
16347;DHT22;8283;48.504;13.734;2024-01-06T08:57:40;9.80;91.80
16347;DHT22;8283;48.504;13.734;2024-01-06T08:59:59;9.80;91.80
16347;DHT22;8283;48.504;13.734;2024-01-06T09:02:19;9.80;91.70
16347;DHT22;8283;48.504;13.734;2024-01-06T09:04:38;9.80;91.70
16347;DHT22;8283;48.504;13.734;2024-01-06T09:06:58;9.90;91.70
16347;DHT22;8283;48.504;13.734;2024-01-06T09:09:17;9.90;91.70
16347;DHT22;8283;48.504;13.734;2024-01-06T09:11:37;9.90;91.60
16347;DHT22;8283;48.504;13.734;2024-01-06T09:13:56;9.90;91.60
16347;DHT22;8283;48.504;13.734;2024-01-06T09:16:15;9.90;91.60
16347;DHT22;8283;48.504;13.734;2024-01-06T09:18:34;9.90;91.90
16347;DHT22;8283;48.504;13.734;2024-01-06T09:20:54;10.00;91.60
16347;DHT22;8283;48.504;13.734;2024-01-06T09:23:13;10.00;91.50
16347;DHT22;8283;48.504;13.734;2024-01-06T09:25:32;10.00;91.50
16347;DHT22;8283;48.504;13.734;2024-01-06T09:27:52;10.00;91.50
16347;DHT22;8283;48.504;13.734;2024-01-06T09:30:12;10.00;91.50
16347;DHT22;8283;48.504;13.734;2024-01-06T09:32:32;10.00;91.50
16347;DHT22;8283;48.504;13.734;2024-01-06T09:34:51;10.00;91.50
16347;DHT22;8283;48.504;13.734;2024-01-06T09:37:10;10.00;91.50
16347;DHT22;8283;48.504;13.734;2024-01-06T09:39:30;10.10;91.60
16347;DHT22;8283;48.504;13.734;2024-01-06T09:41:50;10.10;91.60
16347;DHT22;8283;48.504;13.734;2024-01-06T09:44:10;10.10;91.60
16347;DHT22;8283;48.504;13.734;2024-01-06T09:46:29;10.10;91.60
16347;DHT22;8283;48.504;13.734;2024-01-06T09:48:52;10.10;91.60
16347;DHT22;8283;48.504;13.734;2024-01-06T09:51:12;10.10;91.60
16347;DHT22;8283;48.504;13.734;2024-01-06T09:53:34;10.20;91.60
16347;DHT22;8283;48.504;13.734;2024-01-06T09:55:56;10.20;91.60
16347;DHT22;8283;48.504;13.734;2024-01-06T09:58:15;10.20;91.70
16347;DHT22;8283;48.504;13.734;2024-01-06T10:00:35;10.20;92.00
16347;DHT22;8283;48.504;13.734;2024-01-06T10:02:54;10.20;91.70
16347;DHT22;8283;48.504;13.734;2024-01-06T10:05:15;10.30;91.70
16347;DHT22;8283;48.504;13.734;2024-01-06T10:07:35;10.30;91.70
16347;DHT22;8283;48.504;13.734;2024-01-06T10:09:55;10.30;91.80
16347;DHT22;8283;48.504;13.734;2024-01-06T10:12:15;10.40;91.80
16347;DHT22;8283;48.504;13.734;2024-01-06T10:14:35;10.40;91.70
16347;DHT22;8283;48.504;13.734;2024-01-06T10:16:55;10.40;91.70
16347;DHT22;8283;48.504;13.734;2024-01-06T10:19:14;10.40;91.70
16347;DHT22;8283;48.504;13.734;2024-01-06T10:21:34;10.50;91.70
16347;DHT22;8283;48.504;13.734;2024-01-06T10:23:54;10.50;91.70
16347;DHT22;8283;48.504;13.734;2024-01-06T10:26:13;10.50;91.60
16347;DHT22;8283;48.504;13.734;2024-01-06T10:28:32;10.50;91.60
16347;DHT22;8283;48.504;13.734;2024-01-06T10:30:52;10.50;91.60
16347;DHT22;8283;48.504;13.734;2024-01-06T10:33:13;10.60;91.70
16347;DHT22;8283;48.504;13.734;2024-01-06T10:35:32;10.60;91.60
16347;DHT22;8283;48.504;13.734;2024-01-06T10:37:52;10.60;91.60
16347;DHT22;8283;48.504;13.734;2024-01-06T10:40:13;10.60;91.60
16347;DHT22;8283;48.504;13.734;2024-01-06T10:42:33;10.60;91.50
16347;DHT22;8283;48.504;13.734;2024-01-06T10:44:52;10.70;91.50
16347;DHT22;8283;48.504;13.734;2024-01-06T10:47:12;10.70;91.50
16347;DHT22;8283;48.504;13.734;2024-01-06T10:49:33;10.70;91.70
16347;DHT22;8283;48.504;13.734;2024-01-06T10:51:54;10.70;91.40
16347;DHT22;8283;48.504;13.734;2024-01-06T10:54:14;10.70;91.40
16347;DHT22;8283;48.504;13.734;2024-01-06T10:56:38;10.80;91.40
16347;DHT22;8283;48.504;13.734;2024-01-06T10:58:57;10.80;91.40
16347;DHT22;8283;48.504;13.734;2024-01-06T11:01:22;10.80;91.40
16347;DHT22;8283;48.504;13.734;2024-01-06T11:03:41;10.80;91.40
16347;DHT22;8283;48.504;13.734;2024-01-06T11:06:02;10.80;91.40
16347;DHT22;8283;48.504;13.734;2024-01-06T11:08:22;10.80;91.40
16347;DHT22;8283;48.504;13.734;2024-01-06T11:10:44;10.80;91.40
16347;DHT22;8283;48.504;13.734;2024-01-06T11:13:12;10.80;91.40
16347;DHT22;8283;48.504;13.734;2024-01-06T11:15:46;10.90;91.40
16347;DHT22;8283;48.504;13.734;2024-01-06T11:18:06;10.90;91.30
16347;DHT22;8283;48.504;13.734;2024-01-06T11:20:26;10.90;91.30
16347;DHT22;8283;48.504;13.734;2024-01-06T11:22:49;10.90;91.30
16347;DHT22;8283;48.504;13.734;2024-01-06T11:25:13;10.90;91.20
16347;DHT22;8283;48.504;13.734;2024-01-06T11:27:34;10.90;91.10
16347;DHT22;8283;48.504;13.734;2024-01-06T11:29:56;10.80;91.10
16347;DHT22;8283;48.504;13.734;2024-01-06T11:32:16;10.80;91.10
16347;DHT22;8283;48.504;13.734;2024-01-06T11:34:37;10.50;91.00
16347;DHT22;8283;48.504;13.734;2024-01-06T11:36:56;10.80;91.00
16347;DHT22;8283;48.504;13.734;2024-01-06T11:39:44;10.80;91.00
16347;DHT22;8283;48.504;13.734;2024-01-06T11:42:04;10.80;91.10
16347;DHT22;8283;48.504;13.734;2024-01-06T11:44:23;10.70;90.90
16347;DHT22;8283;48.504;13.734;2024-01-06T11:46:44;10.70;90.90
16347;DHT22;8283;48.504;13.734;2024-01-06T11:49:04;10.70;91.00
16347;DHT22;8283;48.504;13.734;2024-01-06T11:51:25;10.70;90.90
16347;DHT22;8283;48.504;13.734;2024-01-06T11:53:45;10.70;91.00
16347;DHT22;8283;48.504;13.734;2024-01-06T11:56:06;10.70;90.90
16347;DHT22;8283;48.504;13.734;2024-01-06T11:58:25;10.60;90.90
16347;DHT22;8283;48.504;13.734;2024-01-06T12:00:55;10.60;90.80
16347;DHT22;8283;48.504;13.734;2024-01-06T12:03:16;10.60;90.90
16347;DHT22;8283;48.504;13.734;2024-01-06T12:05:35;10.50;90.80
16347;DHT22;8283;48.504;13.734;2024-01-06T12:07:57;10.50;90.80
16347;DHT22;8283;48.504;13.734;2024-01-06T12:10:23;10.40;90.80
16347;DHT22;8283;48.504;13.734;2024-01-06T12:12:43;10.40;90.90
16347;DHT22;8283;48.504;13.734;2024-01-06T12:15:13;10.40;91.00
16347;DHT22;8283;48.504;13.734;2024-01-06T12:17:32;10.40;91.10
16347;DHT22;8283;48.504;13.734;2024-01-06T12:19:52;10.40;91.10
16347;DHT22;8283;48.504;13.734;2024-01-06T12:22:12;10.40;91.20
16347;DHT22;8283;48.504;13.734;2024-01-06T12:24:36;10.40;91.20
16347;DHT22;8283;48.504;13.734;2024-01-06T12:26:56;10.40;91.60
16347;DHT22;8283;48.504;13.734;2024-01-06T12:29:17;10.40;91.30
16347;DHT22;8283;48.504;13.734;2024-01-06T12:31:36;10.40;91.30
16347;DHT22;8283;48.504;13.734;2024-01-06T12:33:56;10.50;91.30
16347;DHT22;8283;48.504;13.734;2024-01-06T12:36:15;10.50;91.40
16347;DHT22;8283;48.504;13.734;2024-01-06T12:38:35;10.50;91.40
16347;DHT22;8283;48.504;13.734;2024-01-06T12:40:56;10.50;91.40
16347;DHT22;8283;48.504;13.734;2024-01-06T12:43:15;10.50;91.40
16347;DHT22;8283;48.504;13.734;2024-01-06T12:45:35;10.90;91.60
16347;DHT22;8283;48.504;13.734;2024-01-06T12:47:54;10.60;91.50
16347;DHT22;8283;48.504;13.734;2024-01-06T12:50:13;10.60;91.50
16347;DHT22;8283;48.504;13.734;2024-01-06T12:52:33;10.60;91.50
16347;DHT22;8283;48.504;13.734;2024-01-06T12:54:53;10.60;91.50
16347;DHT22;8283;48.504;13.734;2024-01-06T12:57:12;10.70;91.40
16347;DHT22;8283;48.504;13.734;2024-01-06T12:59:32;10.70;91.40
16347;DHT22;8283;48.504;13.734;2024-01-06T13:01:52;10.70;91.40
16347;DHT22;8283;48.504;13.734;2024-01-06T13:04:11;10.70;91.40
16347;DHT22;8283;48.504;13.734;2024-01-06T13:06:31;10.70;91.40
16347;DHT22;8283;48.504;13.734;2024-01-06T13:08:51;10.70;91.30
16347;DHT22;8283;48.504;13.734;2024-01-06T13:11:11;10.70;91.30
16347;DHT22;8283;48.504;13.734;2024-01-06T13:13:30;10.70;91.30
16347;DHT22;8283;48.504;13.734;2024-01-06T13:15:50;10.80;91.30
16347;DHT22;8283;48.504;13.734;2024-01-06T13:18:10;10.70;91.20
16347;DHT22;8283;48.504;13.734;2024-01-06T13:20:31;10.70;91.20
16347;DHT22;8283;48.504;13.734;2024-01-06T13:22:51;10.70;91.30
16347;DHT22;8283;48.504;13.734;2024-01-06T13:25:11;10.70;91.10
16347;DHT22;8283;48.504;13.734;2024-01-06T13:27:31;10.70;91.10
16347;DHT22;8283;48.504;13.734;2024-01-06T13:29:50;10.70;91.10
16347;DHT22;8283;48.504;13.734;2024-01-06T13:32:11;10.70;91.20
16347;DHT22;8283;48.504;13.734;2024-01-06T13:34:30;10.70;91.00
16347;DHT22;8283;48.504;13.734;2024-01-06T13:36:50;10.70;91.00
16347;DHT22;8283;48.504;13.734;2024-01-06T13:39:09;10.70;91.00
16347;DHT22;8283;48.504;13.734;2024-01-06T13:41:36;10.60;91.00
16347;DHT22;8283;48.504;13.734;2024-01-06T13:43:56;10.60;90.90
16347;DHT22;8283;48.504;13.734;2024-01-06T13:46:16;10.60;90.90
16347;DHT22;8283;48.504;13.734;2024-01-06T13:48:35;10.60;90.90
16347;DHT22;8283;48.504;13.734;2024-01-06T13:50:55;10.60;90.90
16347;DHT22;8283;48.504;13.734;2024-01-06T13:53:15;10.60;90.90
16347;DHT22;8283;48.504;13.734;2024-01-06T13:55:34;10.60;91.00
16347;DHT22;8283;48.504;13.734;2024-01-06T13:57:54;10.60;91.00
16347;DHT22;8283;48.504;13.734;2024-01-06T14:00:13;10.60;91.10
16347;DHT22;8283;48.504;13.734;2024-01-06T14:02:38;10.60;91.40
16347;DHT22;8283;48.504;13.734;2024-01-06T14:04:57;10.60;91.20
16347;DHT22;8283;48.504;13.734;2024-01-06T14:07:17;10.60;91.20
16347;DHT22;8283;48.504;13.734;2024-01-06T14:09:41;10.60;91.20
16347;DHT22;8283;48.504;13.734;2024-01-06T14:12:00;10.60;91.10
16347;DHT22;8283;48.504;13.734;2024-01-06T14:14:20;10.60;91.10
16347;DHT22;8283;48.504;13.734;2024-01-06T14:16:39;10.60;91.10
16347;DHT22;8283;48.504;13.734;2024-01-06T14:18:59;10.60;91.20
16347;DHT22;8283;48.504;13.734;2024-01-06T14:21:19;10.60;91.20
16347;DHT22;8283;48.504;13.734;2024-01-06T14:23:38;10.60;91.20
16347;DHT22;8283;48.504;13.734;2024-01-06T14:25:57;10.50;91.20
16347;DHT22;8283;48.504;13.734;2024-01-06T14:28:17;10.60;91.30
16347;DHT22;8283;48.504;13.734;2024-01-06T14:30:36;10.50;91.30
16347;DHT22;8283;48.504;13.734;2024-01-06T14:32:55;10.60;91.30
16347;DHT22;8283;48.504;13.734;2024-01-06T14:35:15;10.60;91.30
16347;DHT22;8283;48.504;13.734;2024-01-06T14:37:35;10.60;91.30
16347;DHT22;8283;48.504;13.734;2024-01-06T14:39:55;10.60;91.30
16347;DHT22;8283;48.504;13.734;2024-01-06T14:42:14;10.60;91.30
16347;DHT22;8283;48.504;13.734;2024-01-06T14:44:35;10.60;91.30
16347;DHT22;8283;48.504;13.734;2024-01-06T14:46:54;10.50;91.20
16347;DHT22;8283;48.504;13.734;2024-01-06T14:49:14;10.50;91.20
16347;DHT22;8283;48.504;13.734;2024-01-06T14:51:33;10.50;91.10